sensor_id;sensor_type;location;lat;lon;timestamp;P1;durP1;ratioP1;P2;durP2;ratioP2
5416;SDS011;2731;50.754;12.990;2024-03-23T00:51:45;10.13;;;5.82;;
5416;SDS011;2731;50.754;12.990;2024-03-23T00:54:11;8.55;;;5.15;;
5416;SDS011;2731;50.754;12.990;2024-03-23T00:56:42;10.32;;;5.43;;
5416;SDS011;2731;50.754;12.990;2024-03-23T00:59:09;8.30;;;5.72;;
5416;SDS011;2731;50.754;12.990;2024-03-23T01:01:40;8.15;;;4.28;;
5416;SDS011;2731;50.754;12.990;2024-03-23T01:04:08;9.52;;;5.95;;
5416;SDS011;2731;50.754;12.990;2024-03-23T01:06:39;8.95;;;6.18;;
5416;SDS011;2731;50.754;12.990;2024-03-23T01:09:19;9.85;;;6.00;;
5416;SDS011;2731;50.754;12.990;2024-03-23T01:12:03;9.95;;;5.95;;
5416;SDS011;2731;50.754;12.990;2024-03-23T01:14:49;7.88;;;5.45;;
5416;SDS011;2731;50.754;12.990;2024-03-23T01:17:37;12.02;;;6.47;;
5416;SDS011;2731;50.754;12.990;2024-03-23T01:20:24;10.02;;;5.75;;
5416;SDS011;2731;50.754;12.990;2024-03-23T01:23:13;9.05;;;5.97;;
5416;SDS011;2731;50.754;12.990;2024-03-23T01:25:58;12.43;;;6.40;;
5416;SDS011;2731;50.754;12.990;2024-03-23T01:28:37;11.52;;;7.00;;
5416;SDS011;2731;50.754;12.990;2024-03-23T01:31:09;10.00;;;7.00;;
5416;SDS011;2731;50.754;12.990;2024-03-23T01:36:12;10.90;;;6.85;;
5416;SDS011;2731;50.754;12.990;2024-03-23T01:38:41;12.90;;;6.65;;
5416;SDS011;2731;50.754;12.990;2024-03-23T01:41:11;10.95;;;6.32;;
5416;SDS011;2731;50.754;12.990;2024-03-23T01:43:38;8.68;;;6.60;;
5416;SDS011;2731;50.754;12.990;2024-03-23T01:46:13;10.85;;;7.70;;
5416;SDS011;2731;50.754;12.990;2024-03-23T01:48:50;12.88;;;7.72;;
5416;SDS011;2731;50.754;12.990;2024-03-23T01:51:16;10.57;;;7.00;;
5416;SDS011;2731;50.754;12.990;2024-03-23T01:53:42;11.35;;;6.97;;
5416;SDS011;2731;50.754;12.990;2024-03-23T01:56:11;10.40;;;6.15;;
5416;SDS011;2731;50.754;12.990;2024-03-23T01:58:40;13.82;;;7.32;;
5416;SDS011;2731;50.754;12.990;2024-03-23T02:01:13;10.88;;;6.32;;
5416;SDS011;2731;50.754;12.990;2024-03-23T02:03:47;11.50;;;7.38;;
5416;SDS011;2731;50.754;12.990;2024-03-23T02:06:15;10.18;;;7.00;;
5416;SDS011;2731;50.754;12.990;2024-03-23T02:08:43;13.18;;;7.03;;
5416;SDS011;2731;50.754;12.990;2024-03-23T02:11:11;15.77;;;7.75;;
5416;SDS011;2731;50.754;12.990;2024-03-23T02:13:37;12.35;;;7.40;;
5416;SDS011;2731;50.754;12.990;2024-03-23T02:16:05;16.77;;;7.47;;
5416;SDS011;2731;50.754;12.990;2024-03-23T02:18:36;11.32;;;7.78;;
5416;SDS011;2731;50.754;12.990;2024-03-23T02:21:04;11.55;;;7.38;;
5416;SDS011;2731;50.754;12.990;2024-03-23T02:23:30;11.38;;;7.32;;
5416;SDS011;2731;50.754;12.990;2024-03-23T02:26:01;10.77;;;7.38;;
5416;SDS011;2731;50.754;12.990;2024-03-23T02:28:53;10.38;;;7.00;;
5416;SDS011;2731;50.754;12.990;2024-03-23T02:31:41;12.10;;;7.47;;
5416;SDS011;2731;50.754;12.990;2024-03-23T02:34:27;11.70;;;7.57;;
5416;SDS011;2731;50.754;12.990;2024-03-23T02:37:02;13.35;;;7.97;;
5416;SDS011;2731;50.754;12.990;2024-03-23T02:39:47;16.23;;;7.35;;
5416;SDS011;2731;50.754;12.990;2024-03-23T02:42:32;12.27;;;7.00;;
5416;SDS011;2731;50.754;12.990;2024-03-23T02:45:18;14.30;;;7.05;;
5416;SDS011;2731;50.754;12.990;2024-03-23T02:48:04;10.10;;;7.13;;
5416;SDS011;2731;50.754;12.990;2024-03-23T02:50:59;12.02;;;7.03;;
5416;SDS011;2731;50.754;12.990;2024-03-23T02:53:47;11.60;;;7.63;;
5416;SDS011;2731;50.754;12.990;2024-03-23T02:56:34;13.35;;;8.25;;
5416;SDS011;2731;50.754;12.990;2024-03-23T02:59:19;13.25;;;8.80;;
5416;SDS011;2731;50.754;12.990;2024-03-23T03:02:05;12.70;;;7.90;;
5416;SDS011;2731;50.754;12.990;2024-03-23T03:04:50;11.95;;;7.43;;
5416;SDS011;2731;50.754;12.990;2024-03-23T03:07:37;12.93;;;8.00;;
5416;SDS011;2731;50.754;12.990;2024-03-23T03:10:25;13.50;;;7.00;;
5416;SDS011;2731;50.754;12.990;2024-03-23T03:13:11;9.95;;;6.85;;
5416;SDS011;2731;50.754;12.990;2024-03-23T03:15:56;12.85;;;7.35;;
5416;SDS011;2731;50.754;12.990;2024-03-23T03:18:44;14.10;;;8.25;;
5416;SDS011;2731;50.754;12.990;2024-03-23T03:21:30;11.90;;;7.38;;
5416;SDS011;2731;50.754;12.990;2024-03-23T03:24:18;10.88;;;6.88;;
5416;SDS011;2731;50.754;12.990;2024-03-23T03:26:45;9.70;;;6.80;;
5416;SDS011;2731;50.754;12.990;2024-03-23T03:29:31;14.45;;;7.57;;
5416;SDS011;2731;50.754;12.990;2024-03-23T03:32:19;11.50;;;7.18;;
5416;SDS011;2731;50.754;12.990;2024-03-23T03:35:06;12.50;;;8.40;;
5416;SDS011;2731;50.754;12.990;2024-03-23T03:37:53;13.10;;;7.22;;
5416;SDS011;2731;50.754;12.990;2024-03-23T03:40:38;11.18;;;7.68;;
5416;SDS011;2731;50.754;12.990;2024-03-23T03:43:24;15.25;;;7.78;;
5416;SDS011;2731;50.754;12.990;2024-03-23T03:46:09;11.88;;;7.85;;
5416;SDS011;2731;50.754;12.990;2024-03-23T03:48:55;13.57;;;8.60;;
5416;SDS011;2731;50.754;12.990;2024-03-23T03:51:41;14.02;;;9.45;;
5416;SDS011;2731;50.754;12.990;2024-03-23T03:54:27;15.43;;;9.70;;
5416;SDS011;2731;50.754;12.990;2024-03-23T03:57:12;14.45;;;8.98;;
5416;SDS011;2731;50.754;12.990;2024-03-23T03:59:59;15.55;;;9.90;;
5416;SDS011;2731;50.754;12.990;2024-03-23T04:02:45;15.40;;;10.00;;
5416;SDS011;2731;50.754;12.990;2024-03-23T04:05:32;14.82;;;9.15;;
5416;SDS011;2731;50.754;12.990;2024-03-23T04:08:20;15.60;;;10.55;;
5416;SDS011;2731;50.754;12.990;2024-03-23T04:11:07;14.18;;;9.45;;
5416;SDS011;2731;50.754;12.990;2024-03-23T04:13:53;12.65;;;8.32;;
5416;SDS011;2731;50.754;12.990;2024-03-23T04:16:41;13.85;;;8.18;;
5416;SDS011;2731;50.754;12.990;2024-03-23T04:19:13;15.85;;;10.25;;
5416;SDS011;2731;50.754;12.990;2024-03-23T04:22:00;13.20;;;9.10;;
5416;SDS011;2731;50.754;12.990;2024-03-23T04:24:48;14.75;;;8.75;;
5416;SDS011;2731;50.754;12.990;2024-03-23T04:27:34;16.30;;;10.00;;
5416;SDS011;2731;50.754;12.990;2024-03-23T04:30:20;15.80;;;9.07;;
5416;SDS011;2731;50.754;12.990;2024-03-23T04:33:07;14.88;;;9.57;;
5416;SDS011;2731;50.754;12.990;2024-03-23T04:35:54;14.10;;;9.48;;
5416;SDS011;2731;50.754;12.990;2024-03-23T04:38:40;15.05;;;9.55;;
5416;SDS011;2731;50.754;12.990;2024-03-23T04:41:27;12.07;;;8.93;;
5416;SDS011;2731;50.754;12.990;2024-03-23T04:44:14;13.55;;;8.02;;
5416;SDS011;2731;50.754;12.990;2024-03-23T04:47:01;18.58;;;9.82;;
5416;SDS011;2731;50.754;12.990;2024-03-23T04:49:50;13.40;;;8.57;;
5416;SDS011;2731;50.754;12.990;2024-03-23T04:52:39;16.40;;;8.30;;
5416;SDS011;2731;50.754;12.990;2024-03-23T04:55:08;14.60;;;8.50;;
5416;SDS011;2731;50.754;12.990;2024-03-23T04:57:54;14.40;;;8.85;;
5416;SDS011;2731;50.754;12.990;2024-03-23T05:00:40;13.82;;;8.40;;
5416;SDS011;2731;50.754;12.990;2024-03-23T05:03:28;14.55;;;8.32;;
5416;SDS011;2731;50.754;12.990;2024-03-23T05:06:14;14.90;;;8.80;;
5416;SDS011;2731;50.754;12.990;2024-03-23T05:08:41;14.90;;;8.80;;
5416;SDS011;2731;50.754;12.990;2024-03-23T05:11:29;12.10;;;8.07;;
5416;SDS011;2731;50.754;12.990;2024-03-23T05:14:16;12.25;;;8.40;;
5416;SDS011;2731;50.754;12.990;2024-03-23T05:17:03;12.88;;;8.52;;
5416;SDS011;2731;50.754;12.990;2024-03-23T05:19:49;11.30;;;7.88;;
5416;SDS011;2731;50.754;12.990;2024-03-23T05:22:34;13.23;;;7.75;;
5416;SDS011;2731;50.754;12.990;2024-03-23T05:25:21;11.40;;;7.50;;
5416;SDS011;2731;50.754;12.990;2024-03-23T05:27:56;15.05;;;8.57;;
5416;SDS011;2731;50.754;12.990;2024-03-23T05:30:49;11.30;;;7.88;;
5416;SDS011;2731;50.754;12.990;2024-03-23T05:33:38;17.63;;;8.02;;
5416;SDS011;2731;50.754;12.990;2024-03-23T05:36:24;13.88;;;8.35;;
5416;SDS011;2731;50.754;12.990;2024-03-23T05:38:55;12.07;;;8.18;;
5416;SDS011;2731;50.754;12.990;2024-03-23T05:41:41;13.20;;;8.27;;
5416;SDS011;2731;50.754;12.990;2024-03-23T05:44:29;12.93;;;8.73;;
5416;SDS011;2731;50.754;12.990;2024-03-23T05:47:16;16.58;;;9.50;;
5416;SDS011;2731;50.754;12.990;2024-03-23T05:50:02;13.75;;;8.73;;
5416;SDS011;2731;50.754;12.990;2024-03-23T05:52:51;12.95;;;7.63;;
5416;SDS011;2731;50.754;12.990;2024-03-23T05:55:35;15.60;;;9.13;;
5416;SDS011;2731;50.754;12.990;2024-03-23T05:58:11;16.23;;;9.43;;
5416;SDS011;2731;50.754;12.990;2024-03-23T06:01:00;14.43;;;8.65;;
5416;SDS011;2731;50.754;12.990;2024-03-23T06:03:49;10.93;;;8.05;;
5416;SDS011;2731;50.754;12.990;2024-03-23T06:06:34;16.23;;;9.27;;
5416;SDS011;2731;50.754;12.990;2024-03-23T06:09:02;12.13;;;8.95;;
5416;SDS011;2731;50.754;12.990;2024-03-23T06:11:48;17.35;;;10.18;;
5416;SDS011;2731;50.754;12.990;2024-03-23T06:14:35;15.20;;;9.65;;
5416;SDS011;2731;50.754;12.990;2024-03-23T06:17:21;13.10;;;8.73;;
5416;SDS011;2731;50.754;12.990;2024-03-23T06:20:09;17.00;;;9.65;;
5416;SDS011;2731;50.754;12.990;2024-03-23T06:22:55;15.55;;;9.52;;
5416;SDS011;2731;50.754;12.990;2024-03-23T06:25:38;11.60;;;8.87;;
5416;SDS011;2731;50.754;12.990;2024-03-23T06:28:27;12.93;;;9.00;;
5416;SDS011;2731;50.754;12.990;2024-03-23T06:31:17;15.95;;;10.25;;
5416;SDS011;2731;50.754;12.990;2024-03-23T06:34:04;14.38;;;9.63;;
5416;SDS011;2731;50.754;12.990;2024-03-23T06:36:52;12.98;;;8.88;;
5416;SDS011;2731;50.754;12.990;2024-03-23T06:39:37;18.27;;;10.23;;
5416;SDS011;2731;50.754;12.990;2024-03-23T06:42:23;16.75;;;10.27;;
5416;SDS011;2731;50.754;12.990;2024-03-23T06:45:08;16.45;;;11.05;;
5416;SDS011;2731;50.754;12.990;2024-03-23T06:47:55;15.77;;;9.45;;
5416;SDS011;2731;50.754;12.990;2024-03-23T06:50:44;15.50;;;9.13;;
5416;SDS011;2731;50.754;12.990;2024-03-23T06:53:31;15.07;;;9.50;;
5416;SDS011;2731;50.754;12.990;2024-03-23T06:55:59;12.65;;;9.50;;
5416;SDS011;2731;50.754;12.990;2024-03-23T06:58:48;16.27;;;10.48;;
5416;SDS011;2731;50.754;12.990;2024-03-23T07:01:39;15.23;;;9.10;;
5416;SDS011;2731;50.754;12.990;2024-03-23T07:04:27;15.80;;;8.63;;
5416;SDS011;2731;50.754;12.990;2024-03-23T07:07:15;21.67;;;10.88;;
5416;SDS011;2731;50.754;12.990;2024-03-23T07:09:44;18.15;;;10.20;;
5416;SDS011;2731;50.754;12.990;2024-03-23T07:12:30;11.93;;;7.60;;
5416;SDS011;2731;50.754;12.990;2024-03-23T07:15:16;9.88;;;6.80;;
5416;SDS011;2731;50.754;12.990;2024-03-23T07:18:02;12.45;;;6.97;;
5416;SDS011;2731;50.754;12.990;2024-03-23T07:20:56;10.98;;;6.40;;
5416;SDS011;2731;50.754;12.990;2024-03-23T07:23:42;10.05;;;6.95;;
5416;SDS011;2731;50.754;12.990;2024-03-23T07:26:31;9.73;;;6.00;;
5416;SDS011;2731;50.754;12.990;2024-03-23T07:29:19;11.43;;;6.38;;
5416;SDS011;2731;50.754;12.990;2024-03-23T07:32:07;8.13;;;5.72;;
5416;SDS011;2731;50.754;12.990;2024-03-23T07:34:56;7.57;;;5.15;;
5416;SDS011;2731;50.754;12.990;2024-03-23T07:37:41;7.82;;;5.60;;
5416;SDS011;2731;50.754;12.990;2024-03-23T07:40:09;11.00;;;6.22;;
5416;SDS011;2731;50.754;12.990;2024-03-23T07:42:55;9.95;;;6.43;;
5416;SDS011;2731;50.754;12.990;2024-03-23T07:45:41;9.70;;;5.70;;
5416;SDS011;2731;50.754;12.990;2024-03-23T07:48:30;9.52;;;5.95;;
5416;SDS011;2731;50.754;12.990;2024-03-23T07:51:26;13.00;;;6.68;;
5416;SDS011;2731;50.754;12.990;2024-03-23T07:54:11;10.05;;;5.65;;
5416;SDS011;2731;50.754;12.990;2024-03-23T07:56:56;10.02;;;7.18;;
5416;SDS011;2731;50.754;12.990;2024-03-23T07:59:24;10.20;;;6.50;;
5416;SDS011;2731;50.754;12.990;2024-03-23T08:02:14;8.98;;;6.55;;
5416;SDS011;2731;50.754;12.990;2024-03-23T08:05:01;10.05;;;6.50;;
5416;SDS011;2731;50.754;12.990;2024-03-23T08:07:32;8.70;;;6.32;;
5416;SDS011;2731;50.754;12.990;2024-03-23T08:10:13;9.98;;;6.90;;
5416;SDS011;2731;50.754;12.990;2024-03-23T08:13:04;13.07;;;7.60;;
5416;SDS011;2731;50.754;12.990;2024-03-23T08:15:50;11.85;;;7.22;;
5416;SDS011;2731;50.754;12.990;2024-03-23T08:18:37;10.23;;;7.43;;
5416;SDS011;2731;50.754;12.990;2024-03-23T08:21:34;9.63;;;7.15;;
5416;SDS011;2731;50.754;12.990;2024-03-23T08:24:21;12.00;;;7.35;;
5416;SDS011;2731;50.754;12.990;2024-03-23T08:27:06;11.57;;;7.20;;
5416;SDS011;2731;50.754;12.990;2024-03-23T08:29:52;12.95;;;8.25;;
5416;SDS011;2731;50.754;12.990;2024-03-23T08:32:38;13.60;;;8.52;;
5416;SDS011;2731;50.754;12.990;2024-03-23T08:35:24;10.50;;;7.97;;
5416;SDS011;2731;50.754;12.990;2024-03-23T08:38:13;17.60;;;9.43;;
5416;SDS011;2731;50.754;12.990;2024-03-23T08:40:45;14.32;;;9.52;;
5416;SDS011;2731;50.754;12.990;2024-03-23T08:43:30;16.15;;;10.20;;
5416;SDS011;2731;50.754;12.990;2024-03-23T08:46:16;13.10;;;9.57;;
5416;SDS011;2731;50.754;12.990;2024-03-23T08:49:03;19.40;;;11.75;;
5416;SDS011;2731;50.754;12.990;2024-03-23T08:51:49;15.57;;;10.52;;
5416;SDS011;2731;50.754;12.990;2024-03-23T08:54:35;15.90;;;10.90;;
5416;SDS011;2731;50.754;12.990;2024-03-23T08:57:02;13.30;;;9.60;;
5416;SDS011;2731;50.754;12.990;2024-03-23T08:59:48;14.48;;;9.52;;
5416;SDS011;2731;50.754;12.990;2024-03-23T09:02:34;12.70;;;9.55;;
5416;SDS011;2731;50.754;12.990;2024-03-23T09:05:20;15.00;;;10.00;;
5416;SDS011;2731;50.754;12.990;2024-03-23T09:07:47;18.65;;;11.23;;
5416;SDS011;2731;50.754;12.990;2024-03-23T09:10:42;18.85;;;10.88;;
5416;SDS011;2731;50.754;12.990;2024-03-23T09:13:28;15.65;;;7.88;;
5416;SDS011;2731;50.754;12.990;2024-03-23T09:16:14;10.30;;;6.50;;
5416;SDS011;2731;50.754;12.990;2024-03-23T09:19:00;11.05;;;6.78;;
5416;SDS011;2731;50.754;12.990;2024-03-23T09:21:46;9.23;;;5.05;;
5416;SDS011;2731;50.754;12.990;2024-03-23T09:24:32;11.43;;;6.07;;
5416;SDS011;2731;50.754;12.990;2024-03-23T09:27:09;123.47;;;13.70;;
5416;SDS011;2731;50.754;12.990;2024-03-23T09:29:37;9.15;;;2.40;;
5416;SDS011;2731;50.754;12.990;2024-03-23T09:32:06;58.25;;;7.30;;
5416;SDS011;2731;50.754;12.990;2024-03-23T09:34:54;80.32;;;8.95;;
5416;SDS011;2731;50.754;12.990;2024-03-23T09:37:41;50.95;;;5.38;;
5416;SDS011;2731;50.754;12.990;2024-03-23T09:40:27;354.52;;;30.17;;
5416;SDS011;2731;50.754;12.990;2024-03-23T09:43:15;111.78;;;11.95;;
5416;SDS011;2731;50.754;12.990;2024-03-23T09:46:03;84.05;;;8.10;;
5416;SDS011;2731;50.754;12.990;2024-03-23T09:48:51;23.60;;;4.25;;
5416;SDS011;2731;50.754;12.990;2024-03-23T09:51:36;4.57;;;2.00;;
5416;SDS011;2731;50.754;12.990;2024-03-23T09:54:22;2.92;;;1.85;;
5416;SDS011;2731;50.754;12.990;2024-03-23T09:57:07;4.03;;;1.63;;
5416;SDS011;2731;50.754;12.990;2024-03-23T09:59:36;1.30;;;1.08;;
5416;SDS011;2731;50.754;12.990;2024-03-23T10:02:20;0.70;;;0.70;;
5416;SDS011;2731;50.754;12.990;2024-03-23T10:05:19;1.33;;;0.88;;
5416;SDS011;2731;50.754;12.990;2024-03-23T10:07:52;2.35;;;1.20;;
5416;SDS011;2731;50.754;12.990;2024-03-23T10:10:19;1.55;;;0.80;;
5416;SDS011;2731;50.754;12.990;2024-03-23T10:13:06;2.35;;;0.60;;
5416;SDS011;2731;50.754;12.990;2024-03-23T10:15:58;0.60;;;0.57;;
5416;SDS011;2731;50.754;12.990;2024-03-23T10:18:43;0.77;;;0.70;;
5416;SDS011;2731;50.754;12.990;2024-03-23T10:21:31;0.77;;;0.70;;
5416;SDS011;2731;50.754;12.990;2024-03-23T10:24:16;1.98;;;1.08;;
5416;SDS011;2731;50.754;12.990;2024-03-23T10:27:02;0.90;;;0.90;;
5416;SDS011;2731;50.754;12.990;2024-03-23T10:29:29;0.77;;;0.68;;
5416;SDS011;2731;50.754;12.990;2024-03-23T10:32:17;1.38;;;0.73;;
5416;SDS011;2731;50.754;12.990;2024-03-23T10:35:16;1.67;;;0.90;;
5416;SDS011;2731;50.754;12.990;2024-03-23T10:38:07;1.95;;;1.08;;
5416;SDS011;2731;50.754;12.990;2024-03-23T10:40:53;2.42;;;1.55;;
5416;SDS011;2731;50.754;12.990;2024-03-23T10:43:58;3.97;;;2.47;;
5416;SDS011;2731;50.754;12.990;2024-03-23T10:46:28;6.68;;;4.22;;
5416;SDS011;2731;50.754;12.990;2024-03-23T10:49:13;5.13;;;3.15;;
5416;SDS011;2731;50.754;12.990;2024-03-23T10:51:59;5.15;;;3.28;;
5416;SDS011;2731;50.754;12.990;2024-03-23T10:54:44;5.00;;;3.50;;
5416;SDS011;2731;50.754;12.990;2024-03-23T10:57:40;3.63;;;2.33;;
5416;SDS011;2731;50.754;12.990;2024-03-23T11:00:27;2.83;;;1.85;;
5416;SDS011;2731;50.754;12.990;2024-03-23T11:09:00;1.58;;;0.90;;
5416;SDS011;2731;50.754;12.990;2024-03-23T11:11:45;0.70;;;0.55;;
5416;SDS011;2731;50.754;12.990;2024-03-23T11:14:30;3.25;;;1.17;;
5416;SDS011;2731;50.754;12.990;2024-03-23T11:17:19;1.70;;;0.90;;
5416;SDS011;2731;50.754;12.990;2024-03-23T11:20:10;0.60;;;0.50;;
5416;SDS011;2731;50.754;12.990;2024-03-23T11:23:01;1.30;;;1.00;;
5416;SDS011;2731;50.754;12.990;2024-03-23T11:25:30;1.20;;;0.82;;
5416;SDS011;2731;50.754;12.990;2024-03-23T11:28:19;1.58;;;1.00;;
5416;SDS011;2731;50.754;12.990;2024-03-23T11:31:09;1.80;;;1.40;;
5416;SDS011;2731;50.754;12.990;2024-03-23T11:34:02;1.83;;;1.27;;
5416;SDS011;2731;50.754;12.990;2024-03-23T11:36:48;1.77;;;1.27;;
5416;SDS011;2731;50.754;12.990;2024-03-23T11:39:35;2.15;;;1.63;;
5416;SDS011;2731;50.754;12.990;2024-03-23T11:42:19;3.42;;;2.05;;
5416;SDS011;2731;50.754;12.990;2024-03-23T11:45:10;1.80;;;1.40;;
5416;SDS011;2731;50.754;12.990;2024-03-23T11:48:05;1.83;;;1.45;;
5416;SDS011;2731;50.754;12.990;2024-03-23T11:50:56;2.17;;;1.17;;
5416;SDS011;2731;50.754;12.990;2024-03-23T11:53:55;2.03;;;1.40;;
5416;SDS011;2731;50.754;12.990;2024-03-23T11:57:02;1.45;;;1.23;;
5416;SDS011;2731;50.754;12.990;2024-03-23T11:59:55;3.63;;;1.40;;
5416;SDS011;2731;50.754;12.990;2024-03-23T12:02:23;2.58;;;1.60;;
5416;SDS011;2731;50.754;12.990;2024-03-23T12:05:14;2.55;;;1.67;;
5416;SDS011;2731;50.754;12.990;2024-03-23T12:08:20;2.15;;;1.45;;
5416;SDS011;2731;50.754;12.990;2024-03-23T12:11:09;1.88;;;1.33;;
5416;SDS011;2731;50.754;12.990;2024-03-23T12:13:59;1.23;;;1.02;;
5416;SDS011;2731;50.754;12.990;2024-03-23T12:16:44;2.05;;;1.70;;
5416;SDS011;2731;50.754;12.990;2024-03-23T12:19:32;2.47;;;1.45;;
5416;SDS011;2731;50.754;12.990;2024-03-23T12:22:23;2.08;;;1.33;;
5416;SDS011;2731;50.754;12.990;2024-03-23T12:25:09;3.08;;;1.25;;
5416;SDS011;2731;50.754;12.990;2024-03-23T12:27:37;1.15;;;1.02;;
5416;SDS011;2731;50.754;12.990;2024-03-23T12:30:25;1.10;;;0.80;;
5416;SDS011;2731;50.754;12.990;2024-03-23T12:33:12;2.42;;;1.20;;
5416;SDS011;2731;50.754;12.990;2024-03-23T12:35:58;1.40;;;1.13;;
5416;SDS011;2731;50.754;12.990;2024-03-23T12:38:44;1.35;;;1.10;;
5416;SDS011;2731;50.754;12.990;2024-03-23T12:41:29;1.83;;;0.93;;
5416;SDS011;2731;50.754;12.990;2024-03-23T12:44:18;2.47;;;1.20;;
5416;SDS011;2731;50.754;12.990;2024-03-23T12:46:46;1.98;;;1.60;;
5416;SDS011;2731;50.754;12.990;2024-03-23T12:49:30;2.08;;;1.75;;
5416;SDS011;2731;50.754;12.990;2024-03-23T12:52:15;5.07;;;1.77;;
5416;SDS011;2731;50.754;12.990;2024-03-23T12:55:03;1.63;;;1.52;;
5416;SDS011;2731;50.754;12.990;2024-03-23T12:57:51;4.25;;;1.35;;
5416;SDS011;2731;50.754;12.990;2024-03-23T13:00:39;1.85;;;1.33;;
5416;SDS011;2731;50.754;12.990;2024-03-23T13:03:07;2.88;;;1.33;;
5416;SDS011;2731;50.754;12.990;2024-03-23T13:05:56;2.72;;;1.73;;
5416;SDS011;2731;50.754;12.990;2024-03-23T13:08:44;3.22;;;1.98;;
5416;SDS011;2731;50.754;12.990;2024-03-23T13:11:13;2.72;;;1.73;;
5416;SDS011;2731;50.754;12.990;2024-03-23T13:14:00;2.55;;;1.70;;
5416;SDS011;2731;50.754;12.990;2024-03-23T13:16:46;5.15;;;1.48;;
5416;SDS011;2731;50.754;12.990;2024-03-23T13:19:32;6.03;;;3.38;;
5416;SDS011;2731;50.754;12.990;2024-03-23T13:22:01;6.00;;;1.60;;
5416;SDS011;2731;50.754;12.990;2024-03-23T13:24:32;5.72;;;1.90;;
5416;SDS011;2731;50.754;12.990;2024-03-23T13:27:17;6.32;;;2.58;;
5416;SDS011;2731;50.754;12.990;2024-03-23T13:30:05;6.65;;;1.98;;
5416;SDS011;2731;50.754;12.990;2024-03-23T13:32:51;7.35;;;2.47;;
5416;SDS011;2731;50.754;12.990;2024-03-23T13:35:36;4.95;;;1.98;;
5416;SDS011;2731;50.754;12.990;2024-03-23T13:38:24;11.43;;;3.03;;
5416;SDS011;2731;50.754;12.990;2024-03-23T13:40:55;6.07;;;2.33;;
5416;SDS011;2731;50.754;12.990;2024-03-23T13:43:24;3.72;;;1.98;;
5416;SDS011;2731;50.754;12.990;2024-03-23T13:45:58;7.65;;;2.60;;
5416;SDS011;2731;50.754;12.990;2024-03-23T13:48:25;3.67;;;1.98;;
5416;SDS011;2731;50.754;12.990;2024-03-23T13:51:01;4.18;;;2.20;;
5416;SDS011;2731;50.754;12.990;2024-03-23T13:53:30;6.57;;;2.35;;
5416;SDS011;2731;50.754;12.990;2024-03-23T13:56:01;7.13;;;2.38;;
5416;SDS011;2731;50.754;12.990;2024-03-23T13:58:33;3.30;;;2.10;;
5416;SDS011;2731;50.754;12.990;2024-03-23T14:01:06;7.05;;;2.60;;
5416;SDS011;2731;50.754;12.990;2024-03-23T14:03:36;5.88;;;2.15;;
5416;SDS011;2731;50.754;12.990;2024-03-23T14:06:03;5.72;;;2.30;;
5416;SDS011;2731;50.754;12.990;2024-03-23T14:08:37;7.00;;;2.63;;
5416;SDS011;2731;50.754;12.990;2024-03-23T14:11:09;4.97;;;2.05;;
5416;SDS011;2731;50.754;12.990;2024-03-23T14:13:38;4.78;;;2.40;;
5416;SDS011;2731;50.754;12.990;2024-03-23T14:16:06;9.05;;;2.63;;
5416;SDS011;2731;50.754;12.990;2024-03-23T14:18:35;6.22;;;2.45;;
5416;SDS011;2731;50.754;12.990;2024-03-23T14:21:04;11.55;;;3.47;;
5416;SDS011;2731;50.754;12.990;2024-03-23T14:23:32;5.47;;;2.13;;
5416;SDS011;2731;50.754;12.990;2024-03-23T14:25:58;6.68;;;2.72;;
5416;SDS011;2731;50.754;12.990;2024-03-23T14:28:27;9.93;;;3.13;;
5416;SDS011;2731;50.754;12.990;2024-03-23T14:30:54;7.82;;;2.60;;
5416;SDS011;2731;50.754;12.990;2024-03-23T14:33:24;7.03;;;3.30;;
5416;SDS011;2731;50.754;12.990;2024-03-23T14:35:54;5.75;;;3.03;;
5416;SDS011;2731;50.754;12.990;2024-03-23T14:38:21;13.85;;;3.67;;
5416;SDS011;2731;50.754;12.990;2024-03-23T14:41:00;7.40;;;3.05;;
5416;SDS011;2731;50.754;12.990;2024-03-23T14:43:28;8.15;;;2.83;;
5416;SDS011;2731;50.754;12.990;2024-03-23T14:48:42;6.97;;;3.28;;
5416;SDS011;2731;50.754;12.990;2024-03-23T14:51:10;11.27;;;2.83;;
5416;SDS011;2731;50.754;12.990;2024-03-23T14:53:38;6.07;;;2.75;;
5416;SDS011;2731;50.754;12.990;2024-03-23T14:56:10;9.68;;;3.63;;
5416;SDS011;2731;50.754;12.990;2024-03-23T14:58:43;10.10;;;3.10;;
5416;SDS011;2731;50.754;12.990;2024-03-23T15:01:12;9.68;;;3.22;;
5416;SDS011;2731;50.754;12.990;2024-03-23T15:03:39;8.70;;;3.65;;
5416;SDS011;2731;50.754;12.990;2024-03-23T15:06:09;6.63;;;2.88;;
5416;SDS011;2731;50.754;12.990;2024-03-23T15:08:37;7.57;;;3.40;;
5416;SDS011;2731;50.754;12.990;2024-03-23T15:11:04;8.18;;;3.63;;
5416;SDS011;2731;50.754;12.990;2024-03-23T15:13:35;5.75;;;3.17;;
5416;SDS011;2731;50.754;12.990;2024-03-23T15:16:01;13.35;;;3.97;;
5416;SDS011;2731;50.754;12.990;2024-03-23T15:18:34;8.18;;;3.05;;
5416;SDS011;2731;50.754;12.990;2024-03-23T15:21:01;8.57;;;3.33;;
5416;SDS011;2731;50.754;12.990;2024-03-23T15:23:30;15.55;;;4.65;;
5416;SDS011;2731;50.754;12.990;2024-03-23T15:26:00;8.27;;;3.17;;
5416;SDS011;2731;50.754;12.990;2024-03-23T15:28:26;5.45;;;2.75;;
5416;SDS011;2731;50.754;12.990;2024-03-23T15:31:03;8.18;;;2.40;;
5416;SDS011;2731;50.754;12.990;2024-03-23T15:33:32;7.40;;;2.53;;
5416;SDS011;2731;50.754;12.990;2024-03-23T15:35:59;6.97;;;2.53;;
5416;SDS011;2731;50.754;12.990;2024-03-23T15:38:32;4.65;;;2.40;;
5416;SDS011;2731;50.754;12.990;2024-03-23T15:41:00;8.48;;;2.47;;
5416;SDS011;2731;50.754;12.990;2024-03-23T15:43:28;6.32;;;2.45;;
5416;SDS011;2731;50.754;12.990;2024-03-23T15:46:06;4.05;;;1.90;;
5416;SDS011;2731;50.754;12.990;2024-03-23T15:48:38;3.70;;;2.08;;
5416;SDS011;2731;50.754;12.990;2024-03-23T15:51:07;6.35;;;2.10;;
5416;SDS011;2731;50.754;12.990;2024-03-23T15:53:36;3.80;;;1.80;;
5416;SDS011;2731;50.754;12.990;2024-03-23T15:56:04;5.82;;;1.95;;
5416;SDS011;2731;50.754;12.990;2024-03-23T15:58:31;6.95;;;1.75;;
5416;SDS011;2731;50.754;12.990;2024-03-23T16:01:07;6.00;;;2.25;;
5416;SDS011;2731;50.754;12.990;2024-03-23T16:03:36;10.13;;;2.60;;
5416;SDS011;2731;50.754;12.990;2024-03-23T16:06:04;5.40;;;1.88;;
5416;SDS011;2731;50.754;12.990;2024-03-23T16:08:32;7.90;;;2.20;;
5416;SDS011;2731;50.754;12.990;2024-03-23T16:11:05;2.97;;;2.13;;
5416;SDS011;2731;50.754;12.990;2024-03-23T16:13:32;6.32;;;2.38;;
5416;SDS011;2731;50.754;12.990;2024-03-23T16:15:59;7.45;;;2.42;;
5416;SDS011;2731;50.754;12.990;2024-03-23T16:18:29;5.97;;;2.22;;
5416;SDS011;2731;50.754;12.990;2024-03-23T16:21:00;7.97;;;2.58;;
5416;SDS011;2731;50.754;12.990;2024-03-23T16:23:31;7.30;;;2.00;;
5416;SDS011;2731;50.754;12.990;2024-03-23T16:25:57;10.07;;;3.40;;
5416;SDS011;2731;50.754;12.990;2024-03-23T16:28:28;6.75;;;2.88;;
5416;SDS011;2731;50.754;12.990;2024-03-23T16:30:55;4.45;;;2.58;;
5416;SDS011;2731;50.754;12.990;2024-03-23T16:33:24;8.50;;;2.70;;
5416;SDS011;2731;50.754;12.990;2024-03-23T16:36:03;4.22;;;3.17;;
5416;SDS011;2731;50.754;12.990;2024-03-23T16:38:45;8.40;;;3.15;;
5416;SDS011;2731;50.754;12.990;2024-03-23T16:41:14;6.63;;;3.15;;
5416;SDS011;2731;50.754;12.990;2024-03-23T16:43:44;7.82;;;3.88;;
5416;SDS011;2731;50.754;12.990;2024-03-23T16:46:12;7.38;;;3.40;;
5416;SDS011;2731;50.754;12.990;2024-03-23T16:48:41;6.63;;;3.33;;
5416;SDS011;2731;50.754;12.990;2024-03-23T16:51:10;9.90;;;4.03;;
5416;SDS011;2731;50.754;12.990;2024-03-23T16:53:43;11.18;;;4.05;;
5416;SDS011;2731;50.754;12.990;2024-03-23T16:56:15;6.32;;;3.47;;
5416;SDS011;2731;50.754;12.990;2024-03-23T16:58:44;6.05;;;2.88;;
5416;SDS011;2731;50.754;12.990;2024-03-23T17:01:24;5.53;;;2.70;;
5416;SDS011;2731;50.754;12.990;2024-03-23T17:03:52;5.28;;;2.53;;
5416;SDS011;2731;50.754;12.990;2024-03-23T17:06:23;6.00;;;2.70;;
5416;SDS011;2731;50.754;12.990;2024-03-23T17:09:11;6.55;;;3.00;;
5416;SDS011;2731;50.754;12.990;2024-03-23T17:11:39;3.70;;;2.55;;
5416;SDS011;2731;50.754;12.990;2024-03-23T17:14:17;5.47;;;3.30;;